createdAt,value
2023-03-22T00:01:49.078Z,35.88
2023-03-22T00:04:22.548Z,26.85
2023-03-22T00:06:56.035Z,36.53
2023-03-22T00:09:29.558Z,32.05
2023-03-22T00:12:04.961Z,30.30
2023-03-22T00:14:38.564Z,27.70
2023-03-22T00:17:12.035Z,24.05
2023-03-22T00:19:46.572Z,28.92
2023-03-22T00:22:20.082Z,29.52
2023-03-22T00:24:53.546Z,21.13
2023-03-22T00:27:28.476Z,23.65
2023-03-22T00:30:01.967Z,20.80
2023-03-22T00:32:36.587Z,16.30
2023-03-22T00:35:11.106Z,19.88
2023-03-22T00:37:44.586Z,19.10
2023-03-22T00:40:18.497Z,21.52
2023-03-22T00:42:53.415Z,20.98
2023-03-22T00:45:27.052Z,20.25
2023-03-22T00:48:00.612Z,21.58
2023-03-22T00:50:34.163Z,17.92
2023-03-22T00:53:07.688Z,27.20
2023-03-22T00:55:41.344Z,24.08
2023-03-22T00:58:16.307Z,25.58
2023-03-22T01:00:50.419Z,23.52
2023-03-22T01:03:24.769Z,19.67
2023-03-22T01:05:58.966Z,33.90
2023-03-22T01:08:33.605Z,32.53
2023-03-22T01:11:08.111Z,28.20
2023-03-22T01:13:43.024Z,24.92
2023-03-22T01:16:17.671Z,30.70
2023-03-22T01:18:51.429Z,37.10
2023-03-22T01:21:24.946Z,30.92
2023-03-22T01:23:58.691Z,28.73
2023-03-22T01:26:32.213Z,33.47
2023-03-22T01:29:07.148Z,25.25
2023-03-22T01:31:40.653Z,33.47
2023-03-22T01:34:14.142Z,27.52
2023-03-22T01:36:47.761Z,31.00
2023-03-22T01:39:21.464Z,25.35
2023-03-22T01:41:58.244Z,29.15
2023-03-22T01:44:33.816Z,30.70
2023-03-22T01:47:11.464Z,33.08
2023-03-22T01:49:45.060Z,32.17
2023-03-22T01:52:18.704Z,28.08
2023-03-22T01:54:57.094Z,36.72
2023-03-22T01:57:44.066Z,33.42
2023-03-22T02:00:24.294Z,32.30
2023-03-22T02:03:29.934Z,31.05
2023-03-22T02:06:03.495Z,28.48
2023-03-22T02:08:37.521Z,30.50
2023-03-22T02:11:20.777Z,28.90
2023-03-22T02:14:09.206Z,22.40
2023-03-22T02:17:18.008Z,29.27
2023-03-22T02:20:43.850Z,32.70
2023-03-22T02:23:52.926Z,49.90
2023-03-22T02:27:04.983Z,26.02
2023-03-22T02:29:46.024Z,28.10
2023-03-22T02:32:52.310Z,24.15
2023-03-22T02:35:49.040Z,34.50
2023-03-22T02:39:04.434Z,31.20
2023-03-22T02:41:49.067Z,27.98
2023-03-22T02:44:29.004Z,28.80
2023-03-22T02:47:06.533Z,24.40
2023-03-22T02:49:46.014Z,25.80
2023-03-22T02:52:26.309Z,25.40
2023-03-22T02:55:08.104Z,37.90
2023-03-22T02:57:46.449Z,43.03
2023-03-22T03:00:21.053Z,43.20
2023-03-22T03:03:00.081Z,28.48
2023-03-22T03:05:35.675Z,36.45
2023-03-22T03:08:11.496Z,41.75
2023-03-22T03:10:49.322Z,27.63
2023-03-22T03:13:23.086Z,30.25
2023-03-22T03:15:59.840Z,27.42
2023-03-22T03:18:44.786Z,32.08
2023-03-22T03:21:32.719Z,28.25
2023-03-22T03:24:18.688Z,32.20
2023-03-22T03:27:01.241Z,78.15
2023-03-22T03:29:41.698Z,36.58
2023-03-22T03:32:20.576Z,38.45
2023-03-22T03:34:59.473Z,28.65
2023-03-22T03:37:37.327Z,21.10
2023-03-22T03:40:16.472Z,30.15
2023-03-22T03:42:54.199Z,25.48
2023-03-22T03:45:28.000Z,29.20
2023-03-22T03:48:07.393Z,24.75
2023-03-22T03:50:41.308Z,30.80
2023-03-22T03:53:17.620Z,32.28
2023-03-22T03:55:51.273Z,26.60
2023-03-22T03:58:26.603Z,20.52
2023-03-22T04:01:00.127Z,27.17
2023-03-22T04:03:33.886Z,26.23
2023-03-22T04:06:36.434Z,26.20
2023-03-22T04:09:16.249Z,30.58
2023-03-22T04:11:53.117Z,31.10
2023-03-22T04:14:28.520Z,30.27
2023-03-22T04:17:05.690Z,25.80
2023-03-22T04:19:39.165Z,25.17
2023-03-22T04:22:14.878Z,36.30
2023-03-22T04:24:50.616Z,24.80
2023-03-22T04:27:27.215Z,29.80
2023-03-22T04:30:11.602Z,30.50
2023-03-22T04:33:06.989Z,29.45
2023-03-22T04:36:11.041Z,26.85
2023-03-22T04:39:16.300Z,15.88
2023-03-22T04:41:58.111Z,24.73
2023-03-22T04:44:33.045Z,20.88
2023-03-22T04:47:08.031Z,18.48
2023-03-22T04:49:42.208Z,20.23
2023-03-22T04:52:16.215Z,17.85
2023-03-22T04:54:57.007Z,19.38
2023-03-22T04:57:30.551Z,23.77
2023-03-22T05:00:06.935Z,17.42
2023-03-22T05:02:41.946Z,17.48
2023-03-22T05:05:23.812Z,15.43
2023-03-22T05:07:58.741Z,32.42
2023-03-22T05:10:32.753Z,22.02
2023-03-22T05:13:06.296Z,26.45
2023-03-22T05:15:47.302Z,25.83
2023-03-22T05:18:26.337Z,22.02
2023-03-22T05:21:04.012Z,23.00
2023-03-22T05:23:37.522Z,34.03
2023-03-22T05:26:16.143Z,21.55
2023-03-22T05:28:50.064Z,45.88
2023-03-22T05:31:30.458Z,23.83
2023-03-22T05:34:10.705Z,101.85
2023-03-22T05:36:46.325Z,43.10
2023-03-22T05:39:34.308Z,57.03
2023-03-22T05:42:07.813Z,27.58
2023-03-22T05:44:42.462Z,76.93
2023-03-22T05:47:19.280Z,27.98
2023-03-22T05:50:25.325Z,118.78
2023-03-22T05:52:59.082Z,37.67
2023-03-22T05:55:53.143Z,56.60
2023-03-22T05:58:28.933Z,25.70
2023-03-22T06:01:08.082Z,44.92
2023-03-22T06:03:53.670Z,37.78
2023-03-22T06:06:42.679Z,21.90
2023-03-22T06:09:22.604Z,22.63
2023-03-22T06:11:59.844Z,23.67
2023-03-22T06:14:34.107Z,18.45
2023-03-22T06:17:15.540Z,18.20
2023-03-22T06:19:52.020Z,26.63
2023-03-22T06:22:30.558Z,22.38
2023-03-22T06:25:04.710Z,27.45
2023-03-22T06:27:46.234Z,19.50
2023-03-22T06:30:19.735Z,21.85
2023-03-22T06:33:16.055Z,21.52
2023-03-22T06:35:53.526Z,31.27
2023-03-22T06:38:36.520Z,25.08
2023-03-22T06:41:10.389Z,23.08
2023-03-22T06:43:43.908Z,20.85
2023-03-22T06:46:35.121Z,19.63
2023-03-22T06:49:16.867Z,20.85
2023-03-22T06:51:50.402Z,20.15
2023-03-22T06:54:25.417Z,19.38
2023-03-22T06:57:00.393Z,22.65
2023-03-22T06:59:33.883Z,19.77
2023-03-22T07:02:11.469Z,21.83
2023-03-22T07:04:47.394Z,17.58
2023-03-22T07:07:20.962Z,18.88
2023-03-22T07:09:57.048Z,18.08
2023-03-22T07:12:30.698Z,16.50
2023-03-22T07:15:07.557Z,16.80
2023-03-22T07:17:53.566Z,21.92
2023-03-22T07:20:27.370Z,16.33
2023-03-22T07:23:01.767Z,14.52
2023-03-22T07:25:40.953Z,13.10
2023-03-22T07:28:32.068Z,15.07
2023-03-22T07:31:10.029Z,14.57
2023-03-22T07:33:59.236Z,15.20
2023-03-22T07:36:35.314Z,15.75
2023-03-22T07:39:08.844Z,16.92
2023-03-22T07:41:48.374Z,13.98
2023-03-22T07:44:30.844Z,14.50
2023-03-22T07:47:40.384Z,12.40
2023-03-22T07:50:36.239Z,13.98
2023-03-22T07:53:13.308Z,16.48
2023-03-22T07:55:48.349Z,11.00
2023-03-22T07:58:23.266Z,13.68
2023-03-22T08:00:58.568Z,12.55
2023-03-22T08:03:50.832Z,15.43
2023-03-22T08:06:47.117Z,14.35
2023-03-22T08:09:20.725Z,13.70
2023-03-22T08:11:54.586Z,13.80
2023-03-22T08:14:36.363Z,12.77
2023-03-22T08:17:13.441Z,13.35
2023-03-22T08:19:47.250Z,14.52
2023-03-22T08:22:29.991Z,13.88
2023-03-22T08:25:40.971Z,14.07
2023-03-22T08:28:35.580Z,15.65
2023-03-22T08:31:30.197Z,12.55
2023-03-22T08:34:22.436Z,12.18
2023-03-22T08:37:14.802Z,10.85
2023-03-22T08:40:11.559Z,11.32
2023-03-22T08:43:10.580Z,12.73
2023-03-22T08:45:44.302Z,13.98
2023-03-22T08:48:23.866Z,12.55
2023-03-22T08:51:19.313Z,11.23
2023-03-22T08:54:15.931Z,10.63
2023-03-22T08:57:09.513Z,11.75
2023-03-22T08:59:56.763Z,12.20
2023-03-22T09:02:36.845Z,9.70
2023-03-22T09:05:13.588Z,8.25
2023-03-22T09:07:48.539Z,10.93
2023-03-22T09:10:31.376Z,8.77
2023-03-22T09:13:04.962Z,10.13
2023-03-22T09:15:38.790Z,9.75
2023-03-22T09:18:21.117Z,12.82
2023-03-22T09:20:56.151Z,12.05
2023-03-22T09:23:35.541Z,13.63
2023-03-22T09:26:11.145Z,9.80
2023-03-22T09:28:46.070Z,8.65
2023-03-22T09:31:20.869Z,8.38
2023-03-22T09:34:01.949Z,9.20
2023-03-22T09:36:37.391Z,7.32
2023-03-22T09:39:11.205Z,9.70
2023-03-22T09:41:49.763Z,7.85
2023-03-22T09:44:28.178Z,8.90
2023-03-22T09:47:05.374Z,7.22
2023-03-22T09:49:53.027Z,7.68
2023-03-22T09:52:29.190Z,7.47
2023-03-22T09:55:02.720Z,6.05
2023-03-22T09:57:39.028Z,6.60
2023-03-22T10:00:20.891Z,5.65
2023-03-22T10:03:01.936Z,12.93
2023-03-22T10:05:41.679Z,4.15
2023-03-22T10:08:34.296Z,7.93
2023-03-22T10:11:21.977Z,4.75
2023-03-22T10:14:02.862Z,5.32
2023-03-22T10:16:37.234Z,5.20
2023-03-22T10:19:20.493Z,6.20
2023-03-22T10:21:56.600Z,5.05
2023-03-22T10:24:34.263Z,6.03
2023-03-22T10:27:16.315Z,4.20
2023-03-22T10:29:52.937Z,2.83
2023-03-22T10:32:33.040Z,4.03
2023-03-22T10:35:07.146Z,5.00
2023-03-22T10:37:42.009Z,4.32
2023-03-22T10:40:21.511Z,4.15
2023-03-22T10:42:58.230Z,4.57
2023-03-22T10:45:34.907Z,4.20
2023-03-22T10:48:14.835Z,4.72
2023-03-22T10:50:49.423Z,3.55
2023-03-22T10:53:29.781Z,4.75
2023-03-22T10:56:05.850Z,4.65
2023-03-22T10:58:39.317Z,3.40
2023-03-22T11:01:15.048Z,4.72
2023-03-22T11:03:52.674Z,3.20
2023-03-22T11:06:27.702Z,3.50
2023-03-22T11:09:02.873Z,4.13
2023-03-22T11:11:46.554Z,4.63
2023-03-22T11:14:24.358Z,3.85
2023-03-22T11:17:00.676Z,2.63
2023-03-22T11:19:36.214Z,5.07
2023-03-22T11:22:27.886Z,3.83
2023-03-22T11:25:02.192Z,4.53
2023-03-22T11:27:37.700Z,3.10
2023-03-22T11:30:21.485Z,4.72
2023-03-22T11:33:18.591Z,2.78
2023-03-22T11:35:56.778Z,3.78
2023-03-22T11:38:36.664Z,3.05
2023-03-22T11:41:15.175Z,3.58
2023-03-22T11:43:54.334Z,2.88
2023-03-22T11:46:27.934Z,2.38
2023-03-22T11:49:05.925Z,3.22
2023-03-22T11:51:40.459Z,3.83
2023-03-22T11:54:20.937Z,2.50
2023-03-22T11:56:59.091Z,3.30
2023-03-22T11:59:39.957Z,3.10
2023-03-22T12:02:21.541Z,5.20
2023-03-22T12:05:01.946Z,3.05
2023-03-22T12:07:37.720Z,2.22
2023-03-22T12:10:18.026Z,3.67
2023-03-22T12:12:55.400Z,3.55
2023-03-22T12:15:34.213Z,3.75
2023-03-22T12:18:12.994Z,4.32
2023-03-22T12:20:53.273Z,10.90
2023-03-22T12:23:29.435Z,3.00
2023-03-22T12:26:06.522Z,2.75
2023-03-22T12:28:44.447Z,2.63
2023-03-22T12:31:22.639Z,2.45
2023-03-22T12:33:59.500Z,3.70
2023-03-22T12:36:36.975Z,2.00
2023-03-22T12:39:19.614Z,16.20
2023-03-22T12:41:56.956Z,2.50
2023-03-22T12:44:34.289Z,2.20
2023-03-22T12:47:19.011Z,2.88
2023-03-22T12:49:57.822Z,8.90
2023-03-22T12:52:45.285Z,3.50
2023-03-22T12:55:24.450Z,3.28
2023-03-22T12:57:58.320Z,3.25
2023-03-22T13:00:37.520Z,4.45
2023-03-22T13:03:24.635Z,3.55
2023-03-22T13:06:04.636Z,3.58
2023-03-22T13:09:13.190Z,3.03
2023-03-22T13:11:48.804Z,4.07
2023-03-22T13:15:00.947Z,3.97
2023-03-22T13:17:44.763Z,4.32
2023-03-22T13:20:29.021Z,3.88
2023-03-22T13:23:26.069Z,4.07
2023-03-22T13:26:06.761Z,3.25
2023-03-22T13:28:40.474Z,3.17
2023-03-22T13:31:32.228Z,3.47
2023-03-22T13:34:13.739Z,4.00
2023-03-22T13:36:54.275Z,2.85
2023-03-22T13:39:34.742Z,4.90
2023-03-22T13:42:18.350Z,2.42
2023-03-22T13:44:58.589Z,4.70
2023-03-22T13:47:35.987Z,3.97
2023-03-22T13:50:14.924Z,3.35
2023-03-22T13:52:59.866Z,2.33
2023-03-22T13:55:43.442Z,3.95
2023-03-22T13:58:37.272Z,3.30
2023-03-22T14:01:17.964Z,3.17
2023-03-22T14:03:52.499Z,4.40
2023-03-22T14:06:29.199Z,12.23
2023-03-22T14:09:14.974Z,5.43
2023-03-22T14:11:55.802Z,4.68
2023-03-22T14:14:33.554Z,6.23
2023-03-22T14:17:17.440Z,4.93
2023-03-22T14:19:52.624Z,4.40
